DABC

Mohamed Boudiaf International Airport

Constantine, Algeria
TAF DABC 201700Z 2018/2118 05012KT 8000 FEW016 SCT026 TEMPO 2018/2022 FEW023CB BECMG 2021/2023 32006KT TEMPO 2103/2108 2000 BR SCT008
Issued Valid From Valid To
Apr-20 @ 17:00 UTC
(an hour ago)
Apr-20 @ 18:00 UTC
(27 minutes ago)
Apr-21 @ 18:00 UTC
(in 24 hours)
Apr-20 @ 18:00 to Apr-20 @ 21:00
TAF DABC 201700Z 2018/2118 05012KT 8000 FEW016 SCT026
Wind Visibility Clouds
50° at 12 knots 7,998 meters
  • Few at 1,600' AGL
  • Scattered at 2,600' AGL
Temporary Apr-20 @ 18:00 to Apr-20 @ 22:00
TEMPO 2018/2022 FEW023CB
Clouds
  • Few at 2,300' AGL
Becoming Apr-20 @ 21:00 to Apr-21 @ 18:00
BECMG 2021/2023 32006KT
Wind Visibility Clouds
320° at 6 knots 7,998 meters
  • Few at 1,600' AGL
  • Scattered at 2,600' AGL
Temporary Apr-21 @ 03:00 to Apr-21 @ 08:00
TEMPO 2103/2108 2000 BR SCT008
Visibility Clouds Conditions
1,996 meters
  • Scattered at 800' AGL
  • Mist
TAF DABC 201700Z 2018/2118 05012KT 8000 FEW016 SCT026 TEMPO 2018/2022 FEW023CB BECMG 2021/2023 32006KT TEMPO 2103/2108 2000 BR SCT008
Issued Apr-20 @ 17:00 UTC
(an hour ago)
Valid From Apr-20 @ 18:00 UTC
(27 minutes ago)
Valid To Apr-21 @ 18:00 UTC
(in 24 hours)
Apr-20 @ 18:00 - Apr-20 @ 21:00
Wind Visibility
50° at 12 knots 7,998 meters
Clouds
  • Few at 1,600' AGL
  • Scattered at 2,600' AGL
Temporary Apr-20 @ 18:00 - Apr-20 @ 22:00
Clouds
  • Few at 2,300' AGL
Becoming Apr-20 @ 21:00 - Apr-21 @ 18:00
Wind Visibility
320° at 6 knots 7,998 meters
Clouds
  • Few at 1,600' AGL
  • Scattered at 2,600' AGL
Temporary Apr-21 @ 03:00 - Apr-21 @ 08:00
Clouds
  • Scattered at 800' AGL
Conditions
  • Mist